sensor_id;sensor_type;location;lat;lon;timestamp;pressure;altitude;pressure_sealevel;temperature;humidity
26043;BME280;13818;52.156;5.382;2023-03-08T00:00:50;99778.16;;;1.21;100.00
26043;BME280;13818;52.156;5.382;2023-03-08T00:03:18;99783.44;;;1.19;100.00
26043;BME280;13818;52.156;5.382;2023-03-08T00:05:45;99778.25;;;1.18;100.00
26043;BME280;13818;52.156;5.382;2023-03-08T00:08:11;99777.91;;;0.94;100.00
26043;BME280;13818;52.156;5.382;2023-03-08T00:10:38;99771.63;;;1.01;100.00
26043;BME280;13818;52.156;5.382;2023-03-08T00:13:04;99765.31;;;1.08;100.00
26043;BME280;13818;52.156;5.382;2023-03-08T00:15:31;99776.47;;;1.18;100.00
26043;BME280;13818;52.156;5.382;2023-03-08T00:17:57;99770.41;;;1.16;100.00
26043;BME280;13818;52.156;5.382;2023-03-08T00:20:25;99779.28;;;1.10;100.00
26043;BME280;13818;52.156;5.382;2023-03-08T00:22:52;99775.06;;;1.03;100.00
26043;BME280;13818;52.156;5.382;2023-03-08T00:25:19;99770.47;;;1.13;100.00
26043;BME280;13818;52.156;5.382;2023-03-08T00:27:45;99775.81;;;1.08;100.00
26043;BME280;13818;52.156;5.382;2023-03-08T00:30:13;99778.47;;;1.07;100.00
26043;BME280;13818;52.156;5.382;2023-03-08T00:32:39;99777.41;;;1.16;100.00
26043;BME280;13818;52.156;5.382;2023-03-08T00:35:07;99772.78;;;1.25;100.00
26043;BME280;13818;52.156;5.382;2023-03-08T00:37:37;99763.97;;;1.28;100.00
26043;BME280;13818;52.156;5.382;2023-03-08T00:40:05;99768.88;;;1.42;100.00
26043;BME280;13818;52.156;5.382;2023-03-08T00:42:32;99763.72;;;1.37;100.00
26043;BME280;13818;52.156;5.382;2023-03-08T00:44:58;99771.56;;;1.40;100.00
26043;BME280;13818;52.156;5.382;2023-03-08T00:47:24;99767.81;;;1.49;100.00
26043;BME280;13818;52.156;5.382;2023-03-08T00:49:51;99764.31;;;1.49;100.00
26043;BME280;13818;52.156;5.382;2023-03-08T00:52:17;99762.53;;;1.51;100.00
26043;BME280;13818;52.156;5.382;2023-03-08T00:54:45;99758.53;;;1.36;100.00
26043;BME280;13818;52.156;5.382;2023-03-08T00:57:12;99769.13;;;1.33;100.00
26043;BME280;13818;52.156;5.382;2023-03-08T00:59:40;99758.28;;;1.10;100.00
26043;BME280;13818;52.156;5.382;2023-03-08T01:02:07;99754.22;;;0.99;100.00
26043;BME280;13818;52.156;5.382;2023-03-08T01:04:33;99750.03;;;0.90;100.00
26043;BME280;13818;52.156;5.382;2023-03-08T01:07:00;99751.31;;;0.72;100.00
26043;BME280;13818;52.156;5.382;2023-03-08T01:09:27;99746.16;;;0.69;100.00
26043;BME280;13818;52.156;5.382;2023-03-08T01:11:55;99743.50;;;0.70;100.00
26043;BME280;13818;52.156;5.382;2023-03-08T01:14:22;99745.31;;;0.67;100.00
26043;BME280;13818;52.156;5.382;2023-03-08T01:16:48;99734.91;;;0.63;100.00
26043;BME280;13818;52.156;5.382;2023-03-08T01:19:15;99733.09;;;0.67;100.00
26043;BME280;13818;52.156;5.382;2023-03-08T01:21:41;99731.31;;;0.68;100.00
26043;BME280;13818;52.156;5.382;2023-03-08T01:24:08;99720.72;;;0.72;100.00
26043;BME280;13818;52.156;5.382;2023-03-08T01:26:34;99722.38;;;0.76;100.00
26043;BME280;13818;52.156;5.382;2023-03-08T01:29:02;99711.03;;;0.74;100.00
26043;BME280;13818;52.156;5.382;2023-03-08T01:31:29;99716.22;;;0.77;100.00
26043;BME280;13818;52.156;5.382;2023-03-08T01:33:57;99716.56;;;0.63;100.00
26043;BME280;13818;52.156;5.382;2023-03-08T01:36:26;99720.34;;;0.50;100.00
26043;BME280;13818;52.156;5.382;2023-03-08T01:38:53;99703.00;;;0.44;100.00
26043;BME280;13818;52.156;5.382;2023-03-08T01:41:21;99709.25;;;0.39;100.00
26043;BME280;13818;52.156;5.382;2023-03-08T01:43:49;99714.47;;;0.39;100.00
26043;BME280;13818;52.156;5.382;2023-03-08T01:46:23;99707.41;;;0.42;100.00
26043;BME280;13818;52.156;5.382;2023-03-08T01:48:55;99705.53;;;0.47;100.00
26043;BME280;13818;52.156;5.382;2023-03-08T01:51:30;99707.28;;;0.48;100.00
26043;BME280;13818;52.156;5.382;2023-03-08T01:54:01;99699.44;;;0.47;100.00
26043;BME280;13818;52.156;5.382;2023-03-08T01:56:28;99702.03;;;0.48;100.00
26043;BME280;13818;52.156;5.382;2023-03-08T01:58:56;99690.84;;;0.42;100.00
26043;BME280;13818;52.156;5.382;2023-03-08T02:01:24;99673.66;;;0.28;100.00
26043;BME280;13818;52.156;5.382;2023-03-08T02:03:50;99674.34;;;0.37;100.00
26043;BME280;13818;52.156;5.382;2023-03-08T02:06:18;99669.81;;;0.43;100.00
26043;BME280;13818;52.156;5.382;2023-03-08T02:08:46;99673.38;;;0.41;100.00
26043;BME280;13818;52.156;5.382;2023-03-08T02:11:13;99668.97;;;0.41;100.00
26043;BME280;13818;52.156;5.382;2023-03-08T02:13:42;99670.09;;;0.31;100.00
26043;BME280;13818;52.156;5.382;2023-03-08T02:16:12;99665.16;;;0.17;100.00
26043;BME280;13818;52.156;5.382;2023-03-08T02:18:50;99653.09;;;0.10;100.00
26043;BME280;13818;52.156;5.382;2023-03-08T02:21:17;99652.84;;;0.21;100.00
26043;BME280;13818;52.156;5.382;2023-03-08T02:23:44;99652.09;;;0.15;100.00
26043;BME280;13818;52.156;5.382;2023-03-08T02:26:11;99648.50;;;0.20;100.00
26043;BME280;13818;52.156;5.382;2023-03-08T02:28:38;99639.94;;;0.13;100.00
26043;BME280;13818;52.156;5.382;2023-03-08T02:31:05;99645.22;;;0.11;100.00
26043;BME280;13818;52.156;5.382;2023-03-08T02:33:32;99653.00;;;0.14;100.00
26043;BME280;13818;52.156;5.382;2023-03-08T02:36:00;99638.56;;;-0.05;100.00
26043;BME280;13818;52.156;5.382;2023-03-08T02:38:27;99643.63;;;0.04;100.00
26043;BME280;13818;52.156;5.382;2023-03-08T02:40:56;99634.88;;;0.05;100.00
26043;BME280;13818;52.156;5.382;2023-03-08T02:43:23;99630.41;;;0.09;100.00
26043;BME280;13818;52.156;5.382;2023-03-08T02:45:49;99628.53;;;0.15;100.00
26043;BME280;13818;52.156;5.382;2023-03-08T02:48:17;99639.28;;;0.03;100.00
26043;BME280;13818;52.156;5.382;2023-03-08T02:50:43;99627.94;;;0.01;100.00
26043;BME280;13818;52.156;5.382;2023-03-08T02:53:10;99621.97;;;-0.04;100.00
26043;BME280;13818;52.156;5.382;2023-03-08T02:55:37;99617.50;;;-0.01;100.00
26043;BME280;13818;52.156;5.382;2023-03-08T02:58:06;99617.09;;;-0.23;100.00
26043;BME280;13818;52.156;5.382;2023-03-08T03:00:33;99620.34;;;-0.11;100.00
26043;BME280;13818;52.156;5.382;2023-03-08T03:03:00;99619.47;;;-0.09;100.00
26043;BME280;13818;52.156;5.382;2023-03-08T03:05:27;99615.91;;;-0.06;100.00
26043;BME280;13818;52.156;5.382;2023-03-08T03:07:53;99617.78;;;-0.13;100.00
26043;BME280;13818;52.156;5.382;2023-03-08T03:10:22;99620.56;;;-0.21;100.00
26043;BME280;13818;52.156;5.382;2023-03-08T03:12:49;99632.81;;;-0.21;100.00
26043;BME280;13818;52.156;5.382;2023-03-08T03:15:17;99632.81;;;-0.23;100.00
26043;BME280;13818;52.156;5.382;2023-03-08T03:17:44;99624.22;;;-0.28;100.00
26043;BME280;13818;52.156;5.382;2023-03-08T03:20:11;99620.75;;;-0.28;100.00
26043;BME280;13818;52.156;5.382;2023-03-08T03:22:38;99626.06;;;-0.31;100.00
26043;BME280;13818;52.156;5.382;2023-03-08T03:25:05;99612.91;;;-0.30;100.00
26043;BME280;13818;52.156;5.382;2023-03-08T03:27:32;99612.75;;;-0.22;100.00
26043;BME280;13818;52.156;5.382;2023-03-08T03:29:58;99615.41;;;-0.24;100.00
26043;BME280;13818;52.156;5.382;2023-03-08T03:32:26;99616.34;;;-0.28;100.00
26043;BME280;13818;52.156;5.382;2023-03-08T03:34:53;99606.13;;;-0.39;100.00
26043;BME280;13818;52.156;5.382;2023-03-08T03:37:19;99606.16;;;-0.42;100.00
26043;BME280;13818;52.156;5.382;2023-03-08T03:39:46;99607.94;;;-0.42;100.00
26043;BME280;13818;52.156;5.382;2023-03-08T03:42:12;99597.47;;;-0.42;100.00
26043;BME280;13818;52.156;5.382;2023-03-08T03:44:39;99595.47;;;-0.31;100.00
26043;BME280;13818;52.156;5.382;2023-03-08T03:47:06;99587.53;;;-0.26;100.00
26043;BME280;13818;52.156;5.382;2023-03-08T03:49:34;99588.47;;;-0.30;100.00
26043;BME280;13818;52.156;5.382;2023-03-08T03:52:01;99586.75;;;-0.30;100.00
26043;BME280;13818;52.156;5.382;2023-03-08T03:54:28;99579.63;;;-0.25;100.00
26043;BME280;13818;52.156;5.382;2023-03-08T03:56:55;99584.63;;;-0.12;100.00
26043;BME280;13818;52.156;5.382;2023-03-08T03:59:23;99578.66;;;-0.21;100.00
26043;BME280;13818;52.156;5.382;2023-03-08T04:01:49;99582.19;;;-0.22;100.00
26043;BME280;13818;52.156;5.382;2023-03-08T04:04:16;99576.06;;;-0.21;100.00
26043;BME280;13818;52.156;5.382;2023-03-08T04:06:44;99586.75;;;-0.30;100.00
26043;BME280;13818;52.156;5.382;2023-03-08T04:09:12;99589.56;;;-0.41;100.00
26043;BME280;13818;52.156;5.382;2023-03-08T04:11:40;99587.03;;;-0.44;100.00
26043;BME280;13818;52.156;5.382;2023-03-08T04:14:07;99582.91;;;-0.56;100.00
26043;BME280;13818;52.156;5.382;2023-03-08T04:16:36;99585.22;;;-0.40;100.00
26043;BME280;13818;52.156;5.382;2023-03-08T04:19:04;99581.53;;;-0.31;100.00
26043;BME280;13818;52.156;5.382;2023-03-08T04:21:32;99579.69;;;-0.28;100.00
26043;BME280;13818;52.156;5.382;2023-03-08T04:23:59;99581.50;;;-0.30;100.00
26043;BME280;13818;52.156;5.382;2023-03-08T04:26:26;99575.19;;;-0.21;100.00
26043;BME280;13818;52.156;5.382;2023-03-08T04:28:53;99568.13;;;-0.18;100.00
26043;BME280;13818;52.156;5.382;2023-03-08T04:31:21;99555.31;;;-0.30;100.00
26043;BME280;13818;52.156;5.382;2023-03-08T04:33:48;99552.88;;;-0.38;100.00
26043;BME280;13818;52.156;5.382;2023-03-08T04:36:15;99548.88;;;-0.56;100.00
26043;BME280;13818;52.156;5.382;2023-03-08T04:38:42;99559.13;;;-0.45;100.00
26043;BME280;13818;52.156;5.382;2023-03-08T04:41:11;99541.59;;;-0.41;100.00
26043;BME280;13818;52.156;5.382;2023-03-08T04:43:39;99540.72;;;-0.40;100.00
26043;BME280;13818;52.156;5.382;2023-03-08T04:46:06;99532.19;;;-0.50;100.00
26043;BME280;13818;52.156;5.382;2023-03-08T04:48:33;99534.53;;;-0.38;100.00
26043;BME280;13818;52.156;5.382;2023-03-08T04:51:02;99540.66;;;-0.39;100.00
26043;BME280;13818;52.156;5.382;2023-03-08T04:53:30;99535.38;;;-0.37;100.00
26043;BME280;13818;52.156;5.382;2023-03-08T04:55:57;99518.03;;;-0.41;100.00
26043;BME280;13818;52.156;5.382;2023-03-08T04:58:26;99515.72;;;-0.57;100.00
26043;BME280;13818;52.156;5.382;2023-03-08T05:00:53;99505.31;;;-0.58;100.00
26043;BME280;13818;52.156;5.382;2023-03-08T05:03:20;99503.75;;;-0.67;100.00
26043;BME280;13818;52.156;5.382;2023-03-08T05:05:48;99504.59;;;-0.65;100.00
26043;BME280;13818;52.156;5.382;2023-03-08T05:08:15;99499.09;;;-0.53;100.00
26043;BME280;13818;52.156;5.382;2023-03-08T05:10:46;99506.09;;;-0.55;100.00
26043;BME280;13818;52.156;5.382;2023-03-08T05:13:12;99489.56;;;-0.57;100.00
26043;BME280;13818;52.156;5.382;2023-03-08T05:15:40;99499.06;;;-0.51;100.00
26043;BME280;13818;52.156;5.382;2023-03-08T05:18:07;99491.25;;;-0.53;100.00
26043;BME280;13818;52.156;5.382;2023-03-08T05:20:33;99485.03;;;-0.48;100.00
26043;BME280;13818;52.156;5.382;2023-03-08T05:23:02;99486.56;;;-0.40;100.00
26043;BME280;13818;52.156;5.382;2023-03-08T05:25:40;99476.19;;;-0.43;100.00
26043;BME280;13818;52.156;5.382;2023-03-08T05:28:06;99464.78;;;-0.40;100.00
26043;BME280;13818;52.156;5.382;2023-03-08T05:30:33;99448.19;;;-0.41;100.00
26043;BME280;13818;52.156;5.382;2023-03-08T05:33:01;99442.06;;;-0.40;100.00
26043;BME280;13818;52.156;5.382;2023-03-08T05:35:27;99438.59;;;-0.40;100.00
26043;BME280;13818;52.156;5.382;2023-03-08T05:37:54;99435.28;;;-0.48;100.00
26043;BME280;13818;52.156;5.382;2023-03-08T05:40:20;99444.31;;;-0.62;100.00
26043;BME280;13818;52.156;5.382;2023-03-08T05:42:47;99438.28;;;-0.64;100.00
26043;BME280;13818;52.156;5.382;2023-03-08T05:45:13;99431.22;;;-0.62;100.00
26043;BME280;13818;52.156;5.382;2023-03-08T05:47:40;99433.03;;;-0.64;100.00
26043;BME280;13818;52.156;5.382;2023-03-08T05:50:09;99410.34;;;-0.63;100.00
26043;BME280;13818;52.156;5.382;2023-03-08T05:52:35;99415.84;;;-0.76;100.00
26043;BME280;13818;52.156;5.382;2023-03-08T05:55:03;99397.53;;;-0.74;100.00
26043;BME280;13818;52.156;5.382;2023-03-08T05:57:30;99397.19;;;-0.60;100.00
26043;BME280;13818;52.156;5.382;2023-03-08T05:59:57;99394.53;;;-0.59;100.00
26043;BME280;13818;52.156;5.382;2023-03-08T06:02:23;99397.94;;;-0.55;100.00
26043;BME280;13818;52.156;5.382;2023-03-08T06:04:50;99390.91;;;-0.53;100.00
26043;BME280;13818;52.156;5.382;2023-03-08T06:07:17;99393.66;;;-0.59;100.00
26043;BME280;13818;52.156;5.382;2023-03-08T06:09:44;99397.34;;;-0.68;100.00
26043;BME280;13818;52.156;5.382;2023-03-08T06:12:10;99386.81;;;-0.65;100.00
26043;BME280;13818;52.156;5.382;2023-03-08T06:14:37;99378.13;;;-0.66;100.00
26043;BME280;13818;52.156;5.382;2023-03-08T06:17:03;99381.66;;;-0.68;100.00
26043;BME280;13818;52.156;5.382;2023-03-08T06:19:30;99381.56;;;-0.63;100.00
26043;BME280;13818;52.156;5.382;2023-03-08T06:21:56;99386.03;;;-0.69;100.00
26043;BME280;13818;52.156;5.382;2023-03-08T06:24:24;99376.69;;;-0.79;100.00
26043;BME280;13818;52.156;5.382;2023-03-08T06:26:50;99377.47;;;-0.75;100.00
26043;BME280;13818;52.156;5.382;2023-03-08T06:29:19;99379.81;;;-0.64;100.00
26043;BME280;13818;52.156;5.382;2023-03-08T06:31:46;99376.22;;;-0.59;100.00
26043;BME280;13818;52.156;5.382;2023-03-08T06:34:13;99381.34;;;-0.54;100.00
26043;BME280;13818;52.156;5.382;2023-03-08T06:36:39;99383.03;;;-0.53;100.00
26043;BME280;13818;52.156;5.382;2023-03-08T06:39:06;99378.50;;;-0.45;100.00
26043;BME280;13818;52.156;5.382;2023-03-08T06:41:33;99387.00;;;-0.35;100.00
26043;BME280;13818;52.156;5.382;2023-03-08T06:44:00;99384.25;;;-0.30;100.00
26043;BME280;13818;52.156;5.382;2023-03-08T06:46:27;99376.19;;;-0.23;100.00
26043;BME280;13818;52.156;5.382;2023-03-08T06:48:53;99386.84;;;-0.29;100.00
26043;BME280;13818;52.156;5.382;2023-03-08T06:51:20;99373.41;;;-0.17;100.00
26043;BME280;13818;52.156;5.382;2023-03-08T06:53:47;99381.28;;;-0.17;100.00
26043;BME280;13818;52.156;5.382;2023-03-08T06:56:15;99388.78;;;-0.03;100.00
26043;BME280;13818;52.156;5.382;2023-03-08T06:58:43;99386.44;;;-0.13;100.00
26043;BME280;13818;52.156;5.382;2023-03-08T07:01:10;99383.69;;;-0.07;100.00
26043;BME280;13818;52.156;5.382;2023-03-08T07:03:37;99381.06;;;-0.07;100.00
26043;BME280;13818;52.156;5.382;2023-03-08T07:06:07;99390.16;;;-0.22;100.00
26043;BME280;13818;52.156;5.382;2023-03-08T07:08:34;99389.22;;;-0.20;100.00
26043;BME280;13818;52.156;5.382;2023-03-08T07:11:01;99380.72;;;-0.29;100.00
26043;BME280;13818;52.156;5.382;2023-03-08T07:13:28;99383.03;;;-0.17;100.00
26043;BME280;13818;52.156;5.382;2023-03-08T07:15:56;99381.66;;;-0.32;100.00
26043;BME280;13818;52.156;5.382;2023-03-08T07:18:22;99374.59;;;-0.28;100.00
26043;BME280;13818;52.156;5.382;2023-03-08T07:20:51;99377.16;;;-0.27;100.00
26043;BME280;13818;52.156;5.382;2023-03-08T07:23:18;99366.22;;;-0.08;100.00
26043;BME280;13818;52.156;5.382;2023-03-08T07:25:44;99367.38;;;-0.19;100.00
26043;BME280;13818;52.156;5.382;2023-03-08T07:28:11;99362.88;;;-0.13;100.00
26043;BME280;13818;52.156;5.382;2023-03-08T07:30:38;99366.44;;;-0.16;100.00
26043;BME280;13818;52.156;5.382;2023-03-08T07:33:05;99354.91;;;-0.09;100.00
26043;BME280;13818;52.156;5.382;2023-03-08T07:35:32;99363.47;;;-0.02;100.00
26043;BME280;13818;52.156;5.382;2023-03-08T07:37:58;99358.00;;;0.06;100.00
26043;BME280;13818;52.156;5.382;2023-03-08T07:40:25;99356.22;;;0.08;100.00
26043;BME280;13818;52.156;5.382;2023-03-08T07:42:51;99352.88;;;0.01;100.00
26043;BME280;13818;52.156;5.382;2023-03-08T07:45:18;99354.72;;;-0.01;100.00
26043;BME280;13818;52.156;5.382;2023-03-08T07:47:44;99345.13;;;-0.02;100.00
26043;BME280;13818;52.156;5.382;2023-03-08T07:50:12;99337.94;;;0.05;100.00
26043;BME280;13818;52.156;5.382;2023-03-08T07:52:38;99333.50;;;0.08;100.00
26043;BME280;13818;52.156;5.382;2023-03-08T07:55:06;99328.03;;;0.16;100.00
26043;BME280;13818;52.156;5.382;2023-03-08T07:57:33;99333.66;;;0.02;100.00
26043;BME280;13818;52.156;5.382;2023-03-08T07:59:59;99333.59;;;0.04;100.00
26043;BME280;13818;52.156;5.382;2023-03-08T08:02:26;99326.31;;;0.15;100.00
26043;BME280;13818;52.156;5.382;2023-03-08T08:04:52;99325.06;;;0.28;100.00
26043;BME280;13818;52.156;5.382;2023-03-08T08:07:20;99328.53;;;0.30;100.00
26043;BME280;13818;52.156;5.382;2023-03-08T08:09:46;99323.31;;;0.29;100.00
26043;BME280;13818;52.156;5.382;2023-03-08T08:12:13;99318.94;;;0.29;100.00
26043;BME280;13818;52.156;5.382;2023-03-08T08:14:40;99322.88;;;0.44;100.00
26043;BME280;13818;52.156;5.382;2023-03-08T08:17:06;99323.59;;;0.50;100.00
26043;BME280;13818;52.156;5.382;2023-03-08T08:19:33;99321.22;;;0.40;100.00
26043;BME280;13818;52.156;5.382;2023-03-08T08:22:00;99321.59;;;0.28;100.00
26043;BME280;13818;52.156;5.382;2023-03-08T08:24:28;99311.69;;;0.38;100.00
26043;BME280;13818;52.156;5.382;2023-03-08T08:26:55;99316.59;;;0.50;100.00
26043;BME280;13818;52.156;5.382;2023-03-08T08:29:22;99318.09;;;0.59;100.00
26043;BME280;13818;52.156;5.382;2023-03-08T08:31:48;99326.91;;;0.56;100.00
26043;BME280;13818;52.156;5.382;2023-03-08T08:34:17;99311.66;;;0.69;100.00
26043;BME280;13818;52.156;5.382;2023-03-08T08:36:43;99312.94;;;0.56;100.00
26043;BME280;13818;52.156;5.382;2023-03-08T08:39:09;99317.25;;;0.58;100.00
26043;BME280;13818;52.156;5.382;2023-03-08T08:41:38;99322.19;;;0.68;100.00
26043;BME280;13818;52.156;5.382;2023-03-08T08:44:04;99321.03;;;0.48;100.00
26043;BME280;13818;52.156;5.382;2023-03-08T08:46:31;99322.28;;;0.35;100.00
26043;BME280;13818;52.156;5.382;2023-03-08T08:48:59;99328.25;;;0.40;100.00
26043;BME280;13818;52.156;5.382;2023-03-08T08:51:26;99321.22;;;0.42;100.00
26043;BME280;13818;52.156;5.382;2023-03-08T08:53:53;99324.81;;;0.38;100.00
26043;BME280;13818;52.156;5.382;2023-03-08T08:56:22;99320.66;;;0.30;100.00
26043;BME280;13818;52.156;5.382;2023-03-08T08:58:50;99307.50;;;0.32;100.00
26043;BME280;13818;52.156;5.382;2023-03-08T09:01:18;99310.75;;;0.40;100.00
26043;BME280;13818;52.156;5.382;2023-03-08T09:03:46;99299.25;;;0.46;100.00
26043;BME280;13818;52.156;5.382;2023-03-08T09:06:13;99301.88;;;0.46;100.00
26043;BME280;13818;52.156;5.382;2023-03-08T09:08:40;99301.28;;;0.66;100.00
26043;BME280;13818;52.156;5.382;2023-03-08T09:11:09;99302.75;;;0.75;100.00
26043;BME280;13818;52.156;5.382;2023-03-08T09:13:36;99305.38;;;0.75;100.00
26043;BME280;13818;52.156;5.382;2023-03-08T09:16:16;99314.91;;;0.77;100.00
26043;BME280;13818;52.156;5.382;2023-03-08T09:18:43;99300.00;;;0.79;100.00
26043;BME280;13818;52.156;5.382;2023-03-08T09:21:09;99309.03;;;0.69;100.00
26043;BME280;13818;52.156;5.382;2023-03-08T09:23:36;99302.88;;;0.70;100.00
26043;BME280;13818;52.156;5.382;2023-03-08T09:26:03;99297.59;;;0.72;100.00
26043;BME280;13818;52.156;5.382;2023-03-08T09:28:30;99293.75;;;0.84;100.00
26043;BME280;13818;52.156;5.382;2023-03-08T09:30:57;99287.06;;;0.73;100.00
26043;BME280;13818;52.156;5.382;2023-03-08T09:33:25;99281.53;;;0.83;100.00
26043;BME280;13818;52.156;5.382;2023-03-08T09:35:55;99273.19;;;0.70;100.00
26043;BME280;13818;52.156;5.382;2023-03-08T09:38:21;99277.97;;;0.57;100.00
26043;BME280;13818;52.156;5.382;2023-03-08T09:40:55;99265.69;;;0.57;100.00
26043;BME280;13818;52.156;5.382;2023-03-08T09:43:29;99249.97;;;0.57;100.00
26043;BME280;13818;52.156;5.382;2023-03-08T09:45:59;99247.56;;;0.78;100.00
26043;BME280;13818;52.156;5.382;2023-03-08T09:48:28;99241.94;;;0.90;100.00
26043;BME280;13818;52.156;5.382;2023-03-08T09:50:55;99240.66;;;1.04;100.00
26043;BME280;13818;52.156;5.382;2023-03-08T09:53:28;99252.22;;;1.25;100.00
26043;BME280;13818;52.156;5.382;2023-03-08T09:56:05;99243.34;;;1.01;100.00
26043;BME280;13818;52.156;5.382;2023-03-08T09:58:38;99223.25;;;1.01;100.00
26043;BME280;13818;52.156;5.382;2023-03-08T10:01:18;99221.75;;;1.19;100.00
26043;BME280;13818;52.156;5.382;2023-03-08T10:04:16;99226.53;;;1.33;100.00
26043;BME280;13818;52.156;5.382;2023-03-08T10:06:53;99241.69;;;1.52;100.00
26043;BME280;13818;52.156;5.382;2023-03-08T10:09:28;99236.81;;;1.90;100.00
26043;BME280;13818;52.156;5.382;2023-03-08T10:12:00;99241.69;;;2.01;100.00
26043;BME280;13818;52.156;5.382;2023-03-08T10:14:31;99230.31;;;2.00;100.00
26043;BME280;13818;52.156;5.382;2023-03-08T10:17:02;99247.59;;;2.07;100.00
26043;BME280;13818;52.156;5.382;2023-03-08T10:19:34;99238.88;;;2.05;100.00
26043;BME280;13818;52.156;5.382;2023-03-08T10:22:07;99226.78;;;2.01;100.00
26043;BME280;13818;52.156;5.382;2023-03-08T10:24:40;99232.63;;;2.09;100.00
26043;BME280;13818;52.156;5.382;2023-03-08T10:27:15;99231.00;;;2.05;100.00
26043;BME280;13818;52.156;5.382;2023-03-08T10:29:48;99232.13;;;2.22;100.00
26043;BME280;13818;52.156;5.382;2023-03-08T10:32:15;99225.88;;;2.26;100.00
26043;BME280;13818;52.156;5.382;2023-03-08T10:34:43;99223.25;;;2.48;100.00
26043;BME280;13818;52.156;5.382;2023-03-08T10:37:10;99226.34;;;2.59;100.00
26043;BME280;13818;52.156;5.382;2023-03-08T10:39:46;99221.22;;;2.56;100.00
26043;BME280;13818;52.156;5.382;2023-03-08T10:42:18;99195.44;;;2.42;100.00
26043;BME280;13818;52.156;5.382;2023-03-08T10:44:53;99191.09;;;2.41;100.00
26043;BME280;13818;52.156;5.382;2023-03-08T10:47:22;99193.50;;;2.48;100.00
26043;BME280;13818;52.156;5.382;2023-03-08T10:50:02;99172.06;;;2.57;100.00
26043;BME280;13818;52.156;5.382;2023-03-08T10:52:29;99178.56;;;2.70;100.00
26043;BME280;13818;52.156;5.382;2023-03-08T10:55:00;99169.69;;;2.51;100.00
26043;BME280;13818;52.156;5.382;2023-03-08T10:57:27;99180.03;;;2.55;100.00
26043;BME280;13818;52.156;5.382;2023-03-08T11:00:00;99192.25;;;2.79;100.00
26043;BME280;13818;52.156;5.382;2023-03-08T11:02:29;99185.47;;;3.16;100.00
26043;BME280;13818;52.156;5.382;2023-03-08T11:04:58;99180.81;;;3.22;100.00
26043;BME280;13818;52.156;5.382;2023-03-08T11:07:27;99173.81;;;3.21;100.00
26043;BME280;13818;52.156;5.382;2023-03-08T11:10:03;99176.09;;;3.31;100.00
26043;BME280;13818;52.156;5.382;2023-03-08T11:12:29;99173.97;;;3.39;100.00
26043;BME280;13818;52.156;5.382;2023-03-08T11:14:56;99182.19;;;3.31;100.00
26043;BME280;13818;52.156;5.382;2023-03-08T11:17:25;99180.75;;;3.45;100.00
26043;BME280;13818;52.156;5.382;2023-03-08T11:20:00;99184.97;;;3.49;100.00
26043;BME280;13818;52.156;5.382;2023-03-08T11:22:51;99187.75;;;3.46;100.00
26043;BME280;13818;52.156;5.382;2023-03-08T11:25:33;99200.88;;;3.66;100.00
26043;BME280;13818;52.156;5.382;2023-03-08T11:28:35;99207.09;;;3.84;100.00
26043;BME280;13818;52.156;5.382;2023-03-08T11:31:12;99194.13;;;3.40;100.00
26043;BME280;13818;52.156;5.382;2023-03-08T11:33:49;99191.25;;;3.24;100.00
26043;BME280;13818;52.156;5.382;2023-03-08T11:36:23;99182.84;;;3.16;100.00
26043;BME280;13818;52.156;5.382;2023-03-08T11:38:56;99167.09;;;2.93;100.00
26043;BME280;13818;52.156;5.382;2023-03-08T11:41:31;99176.84;;;2.91;100.00
26043;BME280;13818;52.156;5.382;2023-03-08T11:44:21;99177.81;;;2.89;100.00
26043;BME280;13818;52.156;5.382;2023-03-08T11:46:55;99176.53;;;2.99;100.00
26043;BME280;13818;52.156;5.382;2023-03-08T11:49:52;99163.28;;;3.21;100.00
26043;BME280;13818;52.156;5.382;2023-03-08T11:52:29;99147.63;;;3.18;100.00
26043;BME280;13818;52.156;5.382;2023-03-08T11:55:09;99139.56;;;3.23;100.00
26043;BME280;13818;52.156;5.382;2023-03-08T11:57:46;99130.25;;;3.35;100.00
26043;BME280;13818;52.156;5.382;2023-03-08T12:00:22;99139.13;;;3.32;100.00
26043;BME280;13818;52.156;5.382;2023-03-08T12:02:49;99139.44;;;3.45;100.00
26043;BME280;13818;52.156;5.382;2023-03-08T12:05:24;99136.81;;;3.45;100.00
26043;BME280;13818;52.156;5.382;2023-03-08T12:07:56;99140.59;;;3.19;100.00
26043;BME280;13818;52.156;5.382;2023-03-08T12:10:26;99126.81;;;3.33;100.00
26043;BME280;13818;52.156;5.382;2023-03-08T12:12:57;99131.56;;;3.24;100.00
26043;BME280;13818;52.156;5.382;2023-03-08T12:15:29;99142.44;;;3.37;100.00
26043;BME280;13818;52.156;5.382;2023-03-08T12:18:04;99142.75;;;3.30;100.00
26043;BME280;13818;52.156;5.382;2023-03-08T12:20:35;99145.34;;;3.11;100.00
26043;BME280;13818;52.156;5.382;2023-03-08T12:23:16;99129.72;;;3.06;100.00
26043;BME280;13818;52.156;5.382;2023-03-08T12:25:49;99119.09;;;3.09;100.00
26043;BME280;13818;52.156;5.382;2023-03-08T12:28:20;99121.78;;;3.28;100.00
26043;BME280;13818;52.156;5.382;2023-03-08T12:31:00;99124.25;;;3.31;100.00
26043;BME280;13818;52.156;5.382;2023-03-08T12:33:28;99126.38;;;3.23;100.00
26043;BME280;13818;52.156;5.382;2023-03-08T12:35:58;99119.94;;;3.09;100.00
26043;BME280;13818;52.156;5.382;2023-03-08T12:38:32;99106.69;;;2.90;100.00
26043;BME280;13818;52.156;5.382;2023-03-08T12:41:00;99127.97;;;3.06;100.00
26043;BME280;13818;52.156;5.382;2023-03-08T12:43:30;99136.38;;;3.15;100.00
26043;BME280;13818;52.156;5.382;2023-03-08T12:46:03;99136.53;;;3.12;100.00
26043;BME280;13818;52.156;5.382;2023-03-08T12:48:31;99153.31;;;3.09;100.00
26043;BME280;13818;52.156;5.382;2023-03-08T12:51:07;99140.81;;;3.14;100.00
26043;BME280;13818;52.156;5.382;2023-03-08T12:53:38;99146.06;;;3.35;100.00
26043;BME280;13818;52.156;5.382;2023-03-08T12:56:18;99127.88;;;3.29;100.00
26043;BME280;13818;52.156;5.382;2023-03-08T12:58:49;99126.56;;;3.39;100.00
26043;BME280;13818;52.156;5.382;2023-03-08T13:01:22;99113.22;;;3.23;100.00
26043;BME280;13818;52.156;5.382;2023-03-08T13:03:49;99115.91;;;3.21;100.00
26043;BME280;13818;52.156;5.382;2023-03-08T13:06:36;99110.13;;;3.13;100.00